JAL234 RJOB-RJTT
Flight info
| Callsign | JAL234 |
|---|---|
| Flight time | 1h 4m |
| Altitude | 39000 |
| Route | OLIVE HYOGO SANDA Y289 SHTLE Y71 XAC |
| Aircraft | B738/M-SDFGHIJ1RWXYZ/LB1 |
Departure
| Time | 2026-05-04 18:15 |
|---|---|
| Airport | Okayama Momotaro Airport (RJOB) |
Arrival
| Time | 2026-05-04 19:19 |
|---|---|
| Airport | Tokyo Haneda International Airport (RJTT) |
| Time | Latitude | Longitude | Altitude | Speed | Heading |
|---|---|---|---|---|---|
| 2026-05-04 18:12 | 34.76499 | 133.86798 | 815 ft | 11 kts | 78° |
| 2026-05-04 18:12 | 34.76472 | 133.86875 | 816 ft | 5 kts | 147° |
| 2026-05-04 18:13 | 34.76441 | 133.86899 | 817 ft | 7 kts | 147° |
| 2026-05-04 18:13 | 34.76391 | 133.86935 | 819 ft | 3 kts | 159° |
| 2026-05-04 18:13 | 34.76360 | 133.86898 | 819 ft | 5 kts | 239° |
| 2026-05-04 18:14 | 34.76294 | 133.86764 | 815 ft | 50 kts | 239° |
| 2026-05-04 18:14 | 34.75985 | 133.86133 | 799 ft | 121 kts | 239° |
| 2026-05-04 18:14 | 34.75455 | 133.85060 | 946 ft | 163 kts | 239° |
| 2026-05-04 18:15 | 34.73918 | 133.83169 | 2480 ft | 172 kts | 188° |
| 2026-05-04 18:15 | 34.72176 | 133.84806 | 4141 ft | 172 kts | 91° |
| 2026-05-04 18:15 | 34.72252 | 133.86314 | 4679 ft | 194 kts | 77° |
| 2026-05-04 18:16 | 34.72421 | 133.88075 | 4994 ft | 224 kts | 80° |
| 2026-05-04 18:16 | 34.72548 | 133.90046 | 5569 ft | 234 kts | 81° |
| 2026-05-04 18:16 | 34.72666 | 133.92118 | 5907 ft | 265 kts | 82° |
| 2026-05-04 18:17 | 34.72915 | 133.96750 | 7595 ft | 281 kts | 82° |
| 2026-05-04 18:17 | 34.73044 | 133.99169 | 8392 ft | 290 kts | 82° |
| 2026-05-04 18:17 | 34.73319 | 134.04183 | 10145 ft | 304 kts | 81° |
| 2026-05-04 18:18 | 34.73466 | 134.06836 | 10577 ft | 327 kts | 82° |
| 2026-05-04 18:18 | 34.73620 | 134.09637 | 11069 ft | 342 kts | 82° |
| 2026-05-04 18:18 | 34.73778 | 134.12565 | 11814 ft | 350 kts | 82° |
| 2026-05-04 18:18 | 34.73938 | 134.15536 | 12647 ft | 355 kts | 82° |
| 2026-05-04 18:19 | 34.74267 | 134.21645 | 14261 ft | 367 kts | 83° |
| 2026-05-04 18:19 | 34.74431 | 134.24734 | 14952 ft | 374 kts | 83° |
| 2026-05-04 18:19 | 34.74601 | 134.27918 | 15658 ft | 380 kts | 83° |
| 2026-05-04 18:20 | 34.74774 | 134.31151 | 16412 ft | 384 kts | 83° |
| 2026-05-04 18:20 | 34.74948 | 134.34426 | 17118 ft | 390 kts | 84° |
| 2026-05-04 18:20 | 34.75123 | 134.37734 | 17822 ft | 395 kts | 84° |
| 2026-05-04 18:20 | 34.75299 | 134.41103 | 18521 ft | 401 kts | 84° |
| 2026-05-04 18:21 | 34.75476 | 134.44474 | 19105 ft | 407 kts | 84° |
| 2026-05-04 18:21 | 34.75858 | 134.47918 | 19636 ft | 413 kts | 77° |
| 2026-05-04 18:21 | 34.76495 | 134.51350 | 20239 ft | 417 kts | 73° |
| 2026-05-04 18:21 | 34.77222 | 134.54800 | 20827 ft | 423 kts | 73° |
| 2026-05-04 18:22 | 34.77956 | 134.58246 | 21389 ft | 429 kts | 73° |
| 2026-05-04 18:22 | 34.78693 | 134.61807 | 21926 ft | 435 kts | 75° |
| 2026-05-04 18:22 | 34.79419 | 134.65443 | 22419 ft | 443 kts | 76° |
| 2026-05-04 18:22 | 34.80125 | 134.69074 | 22945 ft | 449 kts | 76° |
| 2026-05-04 18:23 | 34.80838 | 134.72803 | 23511 ft | 454 kts | 77° |
| 2026-05-04 18:23 | 34.81553 | 134.76573 | 23979 ft | 460 kts | 77° |
| 2026-05-04 18:23 | 34.82278 | 134.80407 | 24401 ft | 466 kts | 77° |
| 2026-05-04 18:23 | 34.83002 | 134.84237 | 24800 ft | 472 kts | 77° |
| 2026-05-04 18:24 | 34.83742 | 134.88149 | 25214 ft | 477 kts | 77° |
| 2026-05-04 18:24 | 34.84491 | 134.92117 | 25630 ft | 483 kts | 77° |
| 2026-05-04 18:24 | 34.85247 | 134.96127 | 26021 ft | 488 kts | 77° |
| 2026-05-04 18:24 | 34.86012 | 135.00187 | 26410 ft | 494 kts | 78° |
| 2026-05-04 18:25 | 34.86808 | 135.04301 | 26713 ft | 502 kts | 77° |
| 2026-05-04 18:25 | 34.87634 | 135.08461 | 27057 ft | 508 kts | 77° |
| 2026-05-04 18:25 | 34.88473 | 135.12664 | 27463 ft | 512 kts | 77° |
| 2026-05-04 18:25 | 34.89308 | 135.16863 | 27853 ft | 516 kts | 78° |
| 2026-05-04 18:26 | 34.90158 | 135.21165 | 28212 ft | 521 kts | 78° |
| 2026-05-04 18:26 | 34.91007 | 135.25487 | 28557 ft | 527 kts | 78° |
| 2026-05-04 18:26 | 34.91849 | 135.29793 | 28895 ft | 531 kts | 78° |
| 2026-05-04 18:26 | 34.92647 | 135.34210 | 29252 ft | 534 kts | 83° |
| 2026-05-04 18:27 | 34.93029 | 135.38729 | 29621 ft | 534 kts | 94° |
| 2026-05-04 18:27 | 34.92884 | 135.43244 | 29936 ft | 534 kts | 100° |
| 2026-05-04 18:27 | 34.92581 | 135.47763 | 30249 ft | 536 kts | 102° |
| 2026-05-04 18:27 | 34.92254 | 135.52313 | 30600 ft | 538 kts | 102° |
| 2026-05-04 18:28 | 34.91936 | 135.56857 | 30930 ft | 540 kts | 101° |
| 2026-05-04 18:28 | 34.91634 | 135.61429 | 31264 ft | 543 kts | 101° |
| 2026-05-04 18:28 | 34.91349 | 135.66043 | 31557 ft | 546 kts | 101° |
| 2026-05-04 18:28 | 34.91074 | 135.70665 | 31850 ft | 548 kts | 101° |
| 2026-05-04 18:29 | 34.90801 | 135.75312 | 32126 ft | 551 kts | 101° |
| 2026-05-04 18:29 | 34.90526 | 135.79977 | 32400 ft | 552 kts | 101° |
| 2026-05-04 18:29 | 34.90255 | 135.84560 | 32919 ft | 548 kts | 101° |
| 2026-05-04 18:29 | 34.89979 | 135.89180 | 33451 ft | 544 kts | 101° |
| 2026-05-04 18:30 | 34.89415 | 135.98359 | 34266 ft | 542 kts | 102° |
| 2026-05-04 18:30 | 34.89129 | 136.02941 | 34508 ft | 544 kts | 102° |
| 2026-05-04 18:30 | 34.88839 | 136.07557 | 34745 ft | 545 kts | 102° |
| 2026-05-04 18:31 | 34.88550 | 136.12166 | 35007 ft | 546 kts | 102° |
| 2026-05-04 18:31 | 34.88260 | 136.16778 | 35263 ft | 546 kts | 101° |
| 2026-05-04 18:31 | 34.87969 | 136.21384 | 35577 ft | 545 kts | 102° |
| 2026-05-04 18:31 | 34.87679 | 136.25935 | 35830 ft | 546 kts | 102° |
| 2026-05-04 18:32 | 34.87382 | 136.30555 | 36056 ft | 547 kts | 102° |
| 2026-05-04 18:32 | 34.87085 | 136.35170 | 36258 ft | 547 kts | 102° |
| 2026-05-04 18:32 | 34.86787 | 136.39791 | 36540 ft | 547 kts | 102° |
| 2026-05-04 18:32 | 34.86486 | 136.44415 | 36757 ft | 548 kts | 102° |
| 2026-05-04 18:33 | 34.86183 | 136.49057 | 36985 ft | 549 kts | 102° |
| 2026-05-04 18:33 | 34.85878 | 136.53693 | 37223 ft | 549 kts | 102° |
| 2026-05-04 18:33 | 34.85573 | 136.58317 | 37494 ft | 548 kts | 102° |
| 2026-05-04 18:33 | 34.85266 | 136.62947 | 37753 ft | 548 kts | 102° |
| 2026-05-04 18:34 | 34.84956 | 136.67587 | 37982 ft | 549 kts | 102° |
| 2026-05-04 18:34 | 34.84643 | 136.72220 | 38205 ft | 550 kts | 102° |
| 2026-05-04 18:34 | 34.84329 | 136.76866 | 38397 ft | 550 kts | 102° |
| 2026-05-04 18:34 | 34.84017 | 136.81454 | 38634 ft | 550 kts | 102° |
| 2026-05-04 18:35 | 34.83701 | 136.86084 | 38864 ft | 549 kts | 102° |
| 2026-05-04 18:35 | 34.83383 | 136.90719 | 39005 ft | 549 kts | 102° |
| 2026-05-04 18:35 | 34.83061 | 136.95366 | 39058 ft | 551 kts | 102° |
| 2026-05-04 18:36 | 34.82149 | 137.04606 | 39061 ft | 546 kts | 106° |
| 2026-05-04 18:36 | 34.81046 | 137.13731 | 39059 ft | 543 kts | 106° |
| 2026-05-04 18:37 | 34.79977 | 137.22810 | 39053 ft | 541 kts | 106° |
| 2026-05-04 18:37 | 34.78960 | 137.31797 | 39045 ft | 538 kts | 106° |
| 2026-05-04 18:38 | 34.77940 | 137.40821 | 39047 ft | 537 kts | 106° |
| 2026-05-04 18:38 | 34.76910 | 137.49833 | 39044 ft | 538 kts | 106° |
| 2026-05-04 18:39 | 34.75879 | 137.58816 | 39015 ft | 527 kts | 106° |
| 2026-05-04 18:39 | 34.75381 | 137.63172 | 39007 ft | 513 kts | 107° |
| 2026-05-04 18:39 | 34.74893 | 137.67408 | 39008 ft | 503 kts | 107° |
| 2026-05-04 18:40 | 34.73992 | 137.75880 | 39030 ft | 509 kts | 105° |
| 2026-05-04 18:40 | 34.73196 | 137.84516 | 39017 ft | 519 kts | 105° |
| 2026-05-04 18:41 | 34.72365 | 137.93278 | 38999 ft | 522 kts | 105° |
| 2026-05-04 18:41 | 34.71508 | 138.02035 | 38974 ft | 522 kts | 104° |
| 2026-05-04 18:42 | 34.71247 | 138.10856 | 38517 ft | 522 kts | 96° |
| 2026-05-04 18:42 | 34.71307 | 138.15314 | 37631 ft | 532 kts | 96° |
| 2026-05-04 18:42 | 34.71387 | 138.19801 | 36736 ft | 541 kts | 96° |
| 2026-05-04 18:42 | 34.71458 | 138.24404 | 35897 ft | 547 kts | 96° |
| 2026-05-04 18:43 | 34.71509 | 138.29056 | 35151 ft | 552 kts | 97° |
| 2026-05-04 18:43 | 34.71540 | 138.33753 | 34481 ft | 555 kts | 97° |
| 2026-05-04 18:43 | 34.71558 | 138.38460 | 33846 ft | 556 kts | 97° |
| 2026-05-04 18:43 | 34.71571 | 138.43137 | 33085 ft | 551 kts | 97° |
| 2026-05-04 18:44 | 34.71581 | 138.47728 | 32228 ft | 549 kts | 97° |
| 2026-05-04 18:44 | 34.71584 | 138.49297 | 31962 ft | 548 kts | 97° |
| 2026-05-04 18:44 | 34.71597 | 138.56941 | 30887 ft | 537 kts | 98° |
| 2026-05-04 18:44 | 34.71604 | 138.61451 | 30330 ft | 529 kts | 98° |
| 2026-05-04 18:45 | 34.71609 | 138.65911 | 29702 ft | 522 kts | 98° |
| 2026-05-04 18:45 | 34.71609 | 138.68830 | 29238 ft | 518 kts | 98° |
| 2026-05-04 18:45 | 34.71607 | 138.73198 | 28531 ft | 513 kts | 98° |
| 2026-05-04 18:45 | 34.71604 | 138.78925 | 27662 ft | 506 kts | 97° |
| 2026-05-04 18:46 | 34.71602 | 138.81802 | 27205 ft | 501 kts | 97° |
| 2026-05-04 18:46 | 34.71587 | 138.85973 | 26520 ft | 495 kts | 97° |
| 2026-05-04 18:46 | 34.71563 | 138.90155 | 25695 ft | 491 kts | 97° |
| 2026-05-04 18:46 | 34.71536 | 138.94314 | 24861 ft | 490 kts | 97° |
| 2026-05-04 18:47 | 34.71512 | 138.98431 | 24112 ft | 487 kts | 96° |
| 2026-05-04 18:47 | 34.71491 | 139.02486 | 23431 ft | 481 kts | 96° |
| 2026-05-04 18:47 | 34.71467 | 139.06537 | 22709 ft | 474 kts | 96° |
| 2026-05-04 18:47 | 34.71443 | 139.10521 | 22097 ft | 465 kts | 95° |
| 2026-05-04 18:48 | 34.71418 | 139.14377 | 21487 ft | 457 kts | 95° |
| 2026-05-04 18:48 | 34.71391 | 139.18204 | 20850 ft | 449 kts | 95° |
| 2026-05-04 18:48 | 34.71363 | 139.21980 | 20229 ft | 443 kts | 95° |
| 2026-05-04 18:48 | 34.71334 | 139.25692 | 19615 ft | 436 kts | 94° |
| 2026-05-04 18:49 | 34.71304 | 139.29351 | 19031 ft | 429 kts | 94° |
| 2026-05-04 18:49 | 34.71275 | 139.32950 | 18446 ft | 422 kts | 94° |
| 2026-05-04 18:49 | 34.71245 | 139.36492 | 17868 ft | 413 kts | 93° |
| 2026-05-04 18:49 | 34.71264 | 139.39968 | 17209 ft | 411 kts | 86° |
| 2026-05-04 18:50 | 34.71988 | 139.43299 | 16630 ft | 412 kts | 63° |
| 2026-05-04 18:50 | 34.73337 | 139.46345 | 16338 ft | 404 kts | 57° |
| 2026-05-04 18:50 | 34.74732 | 139.49299 | 15919 ft | 400 kts | 57° |
| 2026-05-04 18:50 | 34.76113 | 139.52207 | 15427 ft | 393 kts | 57° |
| 2026-05-04 18:51 | 34.77465 | 139.55087 | 14719 ft | 392 kts | 57° |
| 2026-05-04 18:51 | 34.78800 | 139.57968 | 14082 ft | 388 kts | 57° |
| 2026-05-04 18:51 | 34.80085 | 139.60770 | 13720 ft | 376 kts | 57° |
| 2026-05-04 18:51 | 34.81327 | 139.63491 | 13564 ft | 358 kts | 57° |
| 2026-05-04 18:52 | 34.82518 | 139.66100 | 13301 ft | 345 kts | 57° |
| 2026-05-04 18:52 | 34.83650 | 139.68582 | 13068 ft | 332 kts | 57° |
| 2026-05-04 18:52 | 34.84748 | 139.70991 | 13012 ft | 316 kts | 57° |
| 2026-05-04 18:52 | 34.85774 | 139.73266 | 12983 ft | 298 kts | 57° |
| 2026-05-04 18:53 | 34.86750 | 139.75449 | 12749 ft | 290 kts | 57° |
| 2026-05-04 18:53 | 34.87708 | 139.77572 | 12513 ft | 278 kts | 55° |
| 2026-05-04 18:53 | 34.88744 | 139.79455 | 12324 ft | 261 kts | 47° |
| 2026-05-04 18:53 | 34.89836 | 139.81248 | 11663 ft | 268 kts | 48° |
| 2026-05-04 18:54 | 34.90931 | 139.83085 | 11049 ft | 274 kts | 49° |
| 2026-05-04 18:54 | 34.92027 | 139.84975 | 10647 ft | 269 kts | 51° |
| 2026-05-04 18:54 | 34.93085 | 139.86826 | 10303 ft | 261 kts | 51° |
| 2026-05-04 18:54 | 34.94298 | 139.88322 | 9991 ft | 242 kts | 22° |
| 2026-05-04 18:55 | 34.95817 | 139.88857 | 9726 ft | 218 kts | 358° |
| 2026-05-04 18:55 | 34.98572 | 139.88355 | 9243 ft | 188 kts | 339° |
| 2026-05-04 18:55 | 34.99816 | 139.87958 | 9051 ft | 182 kts | 339° |
| 2026-05-04 18:56 | 35.01038 | 139.87564 | 8860 ft | 181 kts | 339° |
| 2026-05-04 18:56 | 35.02264 | 139.87169 | 8658 ft | 183 kts | 340° |
| 2026-05-04 18:56 | 35.03490 | 139.86776 | 8462 ft | 185 kts | 340° |
| 2026-05-04 18:56 | 35.04749 | 139.86374 | 8260 ft | 188 kts | 341° |
| 2026-05-04 18:57 | 35.06022 | 139.85968 | 8049 ft | 190 kts | 341° |
| 2026-05-04 18:57 | 35.07317 | 139.85556 | 7834 ft | 193 kts | 341° |
| 2026-05-04 18:57 | 35.08623 | 139.85140 | 7617 ft | 196 kts | 342° |
| 2026-05-04 18:57 | 35.09954 | 139.84717 | 7401 ft | 199 kts | 342° |
| 2026-05-04 18:58 | 35.11297 | 139.84292 | 7166 ft | 199 kts | 342° |
| 2026-05-04 18:58 | 35.12624 | 139.83892 | 6943 ft | 195 kts | 345° |
| 2026-05-04 18:58 | 35.13921 | 139.83471 | 6735 ft | 187 kts | 335° |
| 2026-05-04 18:58 | 35.15158 | 139.83028 | 6527 ft | 187 kts | 339° |
| 2026-05-04 18:59 | 35.16433 | 139.82637 | 6306 ft | 189 kts | 340° |
| 2026-05-04 18:59 | 35.17709 | 139.82243 | 6090 ft | 189 kts | 340° |
| 2026-05-04 18:59 | 35.18984 | 139.81845 | 5885 ft | 189 kts | 340° |
| 2026-05-04 18:59 | 35.20250 | 139.81448 | 5657 ft | 185 kts | 340° |
| 2026-05-04 19:00 | 35.21467 | 139.81066 | 5444 ft | 180 kts | 340° |
| 2026-05-04 19:00 | 35.22659 | 139.80691 | 5253 ft | 173 kts | 340° |
| 2026-05-04 19:00 | 35.23836 | 139.80316 | 5085 ft | 181 kts | 341° |
| 2026-05-04 19:00 | 35.25119 | 139.79905 | 4905 ft | 195 kts | 341° |
| 2026-05-04 19:01 | 35.26447 | 139.79484 | 4661 ft | 197 kts | 341° |
| 2026-05-04 19:01 | 35.27749 | 139.79072 | 4405 ft | 190 kts | 342° |
| 2026-05-04 19:01 | 35.28985 | 139.78681 | 4186 ft | 181 kts | 340° |
| 2026-05-04 19:01 | 35.30193 | 139.78298 | 3985 ft | 178 kts | 340° |
| 2026-05-04 19:02 | 35.31414 | 139.78023 | 3784 ft | 183 kts | 358° |
| 2026-05-04 19:02 | 35.32624 | 139.78643 | 3600 ft | 193 kts | 27° |
| 2026-05-04 19:02 | 35.33753 | 139.79530 | 3392 ft | 193 kts | 25° |
| 2026-05-04 19:02 | 35.34894 | 139.80403 | 3168 ft | 194 kts | 25° |
| 2026-05-04 19:03 | 35.36031 | 139.81279 | 2943 ft | 191 kts | 25° |
| 2026-05-04 19:03 | 35.37121 | 139.82126 | 2717 ft | 184 kts | 24° |
| 2026-05-04 19:03 | 35.38184 | 139.82949 | 2522 ft | 179 kts | 23° |
| 2026-05-04 19:03 | 35.39238 | 139.83764 | 2342 ft | 178 kts | 23° |
| 2026-05-04 19:04 | 35.40276 | 139.84569 | 2138 ft | 174 kts | 22° |
| 2026-05-04 19:04 | 35.41355 | 139.85088 | 2013 ft | 161 kts | 354° |
| 2026-05-04 19:04 | 35.42454 | 139.85055 | 2012 ft | 161 kts | 356° |
| 2026-05-04 19:04 | 35.43580 | 139.85095 | 2017 ft | 162 kts | 356° |
| 2026-05-04 19:05 | 35.44678 | 139.84894 | 2003 ft | 159 kts | 331° |
| 2026-05-04 19:05 | 35.45631 | 139.84182 | 1852 ft | 162 kts | 335° |
| 2026-05-04 19:05 | 35.46644 | 139.83608 | 1645 ft | 159 kts | 331° |
| 2026-05-04 19:05 | 35.47538 | 139.82947 | 1426 ft | 144 kts | 330° |
| 2026-05-04 19:06 | 35.48347 | 139.82360 | 1269 ft | 126 kts | 332° |
| 2026-05-04 19:06 | 35.49068 | 139.81844 | 1075 ft | 117 kts | 332° |
| 2026-05-04 19:06 | 35.49771 | 139.81342 | 929 ft | 118 kts | 331° |
| 2026-05-04 19:06 | 35.50493 | 139.80827 | 779 ft | 119 kts | 331° |
| 2026-05-04 19:07 | 35.51197 | 139.80325 | 608 ft | 116 kts | 331° |
| 2026-05-04 19:07 | 35.51875 | 139.79840 | 440 ft | 114 kts | 331° |
| 2026-05-04 19:07 | 35.52604 | 139.79308 | 308 ft | 131 kts | 330° |
| 2026-05-04 19:07 | 35.53384 | 139.78763 | 133 ft | 121 kts | 329° |
| 2026-05-04 19:08 | 35.54120 | 139.78242 | 265 ft | 125 kts | 330° |
| 2026-05-04 19:08 | 35.54928 | 139.77663 | 1180 ft | 146 kts | 330° |
| 2026-05-04 19:08 | 35.55798 | 139.77047 | 2603 ft | 141 kts | 333° |
| 2026-05-04 19:08 | 35.56954 | 139.76909 | 3024 ft | 193 kts | 6° |
| 2026-05-04 19:09 | 35.58143 | 139.77659 | 2791 ft | 204 kts | 32° |
| 2026-05-04 19:09 | 35.58894 | 139.79198 | 2699 ft | 216 kts | 69° |
| 2026-05-04 19:09 | 35.58828 | 139.81028 | 2960 ft | 212 kts | 96° |
| 2026-05-04 19:09 | 35.58546 | 139.82781 | 2962 ft | 211 kts | 94° |
| 2026-05-04 19:10 | 35.58278 | 139.84540 | 3012 ft | 208 kts | 94° |
| 2026-05-04 19:10 | 35.58012 | 139.86340 | 3061 ft | 228 kts | 95° |
| 2026-05-04 19:10 | 35.57743 | 139.88348 | 3069 ft | 243 kts | 94° |
| 2026-05-04 19:10 | 35.57263 | 139.90347 | 2993 ft | 253 kts | 118° |
| 2026-05-04 19:11 | 35.56068 | 139.91908 | 3034 ft | 252 kts | 144° |
| 2026-05-04 19:11 | 35.54636 | 139.93167 | 3027 ft | 254 kts | 147° |
| 2026-05-04 19:11 | 35.53178 | 139.94387 | 3039 ft | 252 kts | 147° |
| 2026-05-04 19:11 | 35.51735 | 139.95567 | 3004 ft | 247 kts | 147° |
| 2026-05-04 19:12 | 35.50303 | 139.96735 | 3003 ft | 246 kts | 147° |
| 2026-05-04 19:12 | 35.47396 | 139.99090 | 2924 ft | 257 kts | 148° |
| 2026-05-04 19:12 | 35.45712 | 139.99851 | 2692 ft | 267 kts | 182° |
| 2026-05-04 19:13 | 35.43996 | 139.99307 | 2455 ft | 245 kts | 223° |
| 2026-05-04 19:13 | 35.43031 | 139.97796 | 2184 ft | 213 kts | 264° |
| 2026-05-04 19:13 | 35.42768 | 139.96013 | 2092 ft | 215 kts | 269° |
| 2026-05-04 19:13 | 35.42795 | 139.94251 | 2025 ft | 204 kts | 289° |
| 2026-05-04 19:14 | 35.43097 | 139.92566 | 2024 ft | 201 kts | 289° |
| 2026-05-04 19:14 | 35.43385 | 139.90903 | 2018 ft | 197 kts | 290° |
| 2026-05-04 19:14 | 35.43650 | 139.89331 | 2003 ft | 177 kts | 290° |
| 2026-05-04 19:14 | 35.43888 | 139.87921 | 1994 ft | 163 kts | 291° |
| 2026-05-04 19:15 | 35.44114 | 139.86599 | 2008 ft | 159 kts | 291° |
| 2026-05-04 19:15 | 35.44483 | 139.85375 | 2000 ft | 147 kts | 316° |
| 2026-05-04 19:15 | 35.45284 | 139.84639 | 1913 ft | 143 kts | 326° |
| 2026-05-04 19:15 | 35.46057 | 139.83967 | 1769 ft | 131 kts | 330° |
| 2026-05-04 19:16 | 35.46840 | 139.83423 | 1599 ft | 128 kts | 332° |
| 2026-05-04 19:16 | 35.47582 | 139.82902 | 1445 ft | 120 kts | 332° |
| 2026-05-04 19:16 | 35.48278 | 139.82403 | 1255 ft | 114 kts | 332° |
| 2026-05-04 19:16 | 35.48969 | 139.81909 | 1066 ft | 116 kts | 332° |
| 2026-05-04 19:17 | 35.49674 | 139.81411 | 924 ft | 120 kts | 333° |
| 2026-05-04 19:17 | 35.50401 | 139.80893 | 785 ft | 119 kts | 332° |
| 2026-05-04 19:17 | 35.51110 | 139.80381 | 638 ft | 117 kts | 333° |
| 2026-05-04 19:17 | 35.51817 | 139.79878 | 457 ft | 118 kts | 332° |
| 2026-05-04 19:18 | 35.52550 | 139.79351 | 328 ft | 124 kts | 333° |
| 2026-05-04 19:18 | 35.53292 | 139.78820 | 154 ft | 120 kts | 332° |
| 2026-05-04 19:18 | 35.54000 | 139.78319 | 34 ft | 113 kts | 332° |
| 2026-05-04 19:18 | 35.54585 | 139.77908 | 27 ft | 70 kts | 330° |
| 2026-05-04 19:19 | 35.54844 | 139.77727 | 25 ft | 30 kts | 330° |
| 2026-05-04 19:19 | 35.55032 | 139.77642 | 24 ft | 28 kts | 348° |
| 2026-05-04 19:19 | 35.55163 | 139.77635 | 24 ft | 13 kts | 24° |
| 2026-05-04 19:19 | 35.55213 | 139.77722 | 23 ft | 12 kts | 63° |
| 2026-05-04 19:20 | 35.55240 | 139.77811 | 23 ft | 10 kts | 105° |
| 2026-05-04 19:20 | 35.55186 | 139.77865 | 25 ft | 10 kts | 149° |
| 2026-05-04 19:20 | 35.55128 | 139.77907 | 26 ft | 10 kts | 149° |
| 2026-05-04 19:20 | 35.55070 | 139.77950 | 26 ft | 10 kts | 149° |
| 2026-05-04 19:21 | 35.55014 | 139.77992 | 25 ft | 9 kts | 148° |
| 2026-05-04 19:21 | 35.54954 | 139.78035 | 26 ft | 11 kts | 151° |
| 2026-05-04 19:21 | 35.54928 | 139.78050 | 25 ft | 0 kts | 157° |
| 2026-05-04 19:21 | 35.54927 | 139.78056 | 25 ft | 2 kts | 97° |
| 2026-05-04 19:22 | 35.54956 | 139.78056 | 26 ft | 7 kts | 2° |
| 2026-05-04 19:22 | 35.55001 | 139.78076 | 25 ft | 7 kts | 27° |
| 2026-05-04 19:22 | 35.55043 | 139.78100 | 27 ft | 2 kts | 24° |
| 2026-05-04 19:22 | 35.55047 | 139.78102 | 27 ft | 0 kts | 21° |
| 2026-05-04 19:23 | 35.55050 | 139.78104 | 25 ft | 0 kts | 20° |